Waldron Lake, Indiana
Current Conditions -  °F | °C
As of 6:53 PM on Wednesday 22 Oct 2014 (Local Time) from KGSH Reporting Station
Clear Clear  
Wind Chill:   Ceiling: Unl
Heat Index:   Visibility: 10mi
Dew Point:   Wind: 5mph
Humidity: 79%   Direction: 70°ENE
Pressure: 30.3"   Gusts: NA
Location:  41.4818°N, 85.481°W
Report Text: KGSH 222253Z AUTO 07004KT 10SM CLR 07/03 A3030 RMK AO2 SLP266 T00670033
Loading
Personal Weather Stations






























Interactive Weather Map
Tropical Storm Tracking
New forecast layout! Learn more

10-Day Weather Forecast

Advertisements
Track Severe Weather on mobile